Palms, Michigan
Current Conditions -  °F | °C
As of 11:39 AM on Friday 31 Oct 2014 (Local Time) from KBAX Reporting Station
Unknown Precip Unknown Precip  
Wind Chill: 36°   Ceiling: 1200
Heat Index: 42°   Visibility: 3mi
Dew Point: 42°   Wind: 9mph
Humidity: 100%   Direction: 360°N
Pressure: 29.91"   Gusts: NA
Location:  43.62°N, 82.69°W
Report Text: KBAX 311539Z AUTO 36008KT 3SM UP BKN012 OVC017 05/05 A2991 RMK AO2 T00540054
Loading
Personal Weather Stations






























Interactive Weather Map
Tropical Storm Tracking
New forecast layout! Learn more

10-Day Weather Forecast

Advertisements
Track Severe Weather on mobile